Time;durP1;ratioP1;P1;durP2;ratioP2;P2;SDS_P1;SDS_P2;PMS_P1;PMS_P2;Temp;Humidity;BMP_temperature;BMP_pressure;BME280_temperature;BME280_humidity;BME280_pressure;Samples;Min_cycle;Max_cycle;Signal;HPM_P1;HPM_P2
2023/08/03 00:01:20;;;;;;;2.90;1.30;;;;;;;20.20;58.02;95476.20;107782;1285;25420;-76
2023/08/03 00:03:51;;;;;;;3.60;1.40;;;;;;;20.26;58.04;95483.89;107778;1283;22632;-76
2023/08/03 00:06:22;;;;;;;2.60;1.30;;;;;;;20.29;57.95;95486.25;107814;1283;22555;-76
2023/08/03 00:08:53;;;;;;;1.80;1.50;;;;;;;20.28;57.98;95482.38;107832;1285;22685;-76
2023/08/03 00:11:24;;;;;;;3.30;1.20;;;;;;;20.28;57.99;95480.84;107821;1285;23187;-76
2023/08/03 00:13:55;;;;;;;2.00;1.40;;;;;;;20.27;57.98;95476.05;107796;1285;25439;-76
2023/08/03 00:16:26;;;;;;;1.30;1.00;;;;;;;20.27;57.90;95480.66;107846;1285;22585;-76
2023/08/03 00:18:57;;;;;;;1.70;1.30;;;;;;;20.25;58.04;95480.17;107752;1285;22552;-76
2023/08/03 00:21:28;;;;;;;4.60;1.50;;;;;;;20.23;58.14;95480.47;107802;1285;24167;-76
2023/08/03 00:23:59;;;;;;;2.00;1.20;;;;;;;20.20;58.12;95477.83;107790;1285;22546;-76
2023/08/03 00:26:30;;;;;;;2.40;1.50;;;;;;;20.16;58.29;95467.27;107799;1285;25374;-76
2023/08/03 00:29:01;;;;;;;1.60;1.00;;;;;;;20.12;58.28;95468.52;107790;1280;22545;-76
2023/08/03 00:31:32;;;;;;;1.40;1.00;;;;;;;20.10;58.51;95465.94;107822;1284;25534;-76
2023/08/03 00:34:03;;;;;;;1.60;1.20;;;;;;;20.08;58.71;95458.55;107759;1279;23194;-76
2023/08/03 00:36:34;;;;;;;1.70;1.40;;;;;;;20.10;58.83;95452.71;107826;1279;22948;-76
2023/08/03 00:39:05;;;;;;;2.90;1.40;;;;;;;20.10;58.96;95458.25;107795;1285;22568;-76
2023/08/03 00:41:36;;;;;;;2.10;1.40;;;;;;;20.13;58.99;95448.54;107822;1279;24231;-76
2023/08/03 00:44:07;;;;;;;2.80;1.20;;;;;;;20.16;58.94;95441.58;107836;1285;22535;-76
2023/08/03 00:46:38;;;;;;;2.00;1.20;;;;;;;20.17;59.04;95442.43;107812;1285;22562;-76
2023/08/03 00:49:09;;;;;;;2.10;1.20;;;;;;;20.18;59.18;95449.36;107791;1285;24411;-76
2023/08/03 00:51:41;;;;;;;2.10;1.70;;;;;;;20.19;59.23;95446.67;107797;1279;22558;-76
2023/08/03 00:54:12;;;;;;;2.50;1.50;;;;;;;20.18;59.28;95443.13;107840;1285;24307;-76
2023/08/03 00:56:43;;;;;;;2.00;1.70;;;;;;;20.20;59.37;95448.14;107808;1285;22543;-76
2023/08/03 00:59:14;;;;;;;1.80;1.40;;;;;;;20.23;59.42;95440.63;107767;1280;22643;-76
2023/08/03 01:01:45;;;;;;;1.70;1.40;;;;;;;20.29;59.53;95440.33;107780;1280;23282;-76
2023/08/03 01:04:16;;;;;;;2.40;1.60;;;;;;;20.33;59.47;95442.68;107799;1264;22525;-76
2023/08/03 01:06:47;;;;;;;1.60;1.40;;;;;;;20.38;59.61;95441.02;107795;1285;22530;-76
2023/08/03 01:09:18;;;;;;;2.80;1.20;;;;;;;20.41;59.66;95438.85;107821;1285;22653;-76
2023/08/03 01:11:49;;;;;;;3.20;1.70;;;;;;;20.43;59.68;95437.66;107787;1285;22550;-76
2023/08/03 01:14:20;;;;;;;2.00;1.50;;;;;;;20.45;59.63;95447.14;107820;1285;22613;-76
2023/08/03 01:16:51;;;;;;;1.40;1.30;;;;;;;20.53;59.59;95446.42;107822;1285;22529;-76
2023/08/03 01:19:22;;;;;;;2.00;1.50;;;;;;;20.58;59.61;95455.65;107767;1285;22552;-76
2023/08/03 01:21:56;;;;;;;1.90;1.30;;;;;;;20.60;59.55;95461.05;107791;1285;25359;-76
2023/08/03 01:24:27;;;;;;;1.80;1.20;;;;;;;20.61;59.59;95463.14;107785;1283;23741;-76
2023/08/03 01:27:00;;;;;;;2.00;1.60;;;;;;;20.60;59.51;95469.67;107781;1280;22608;-76
2023/08/03 01:29:30;;;;;;;2.40;1.80;;;;;;;20.59;59.57;95475.89;107809;1278;22515;-76
2023/08/03 01:32:02;;;;;;;2.20;1.50;;;;;;;20.56;59.81;95473.88;107821;1285;22528;-76
2023/08/03 01:34:34;;;;;;;2.50;1.30;;;;;;;20.56;59.78;95485.17;107784;1285;22589;-76
2023/08/03 01:37:06;;;;;;;2.20;1.50;;;;;;;20.55;59.93;95486.77;107834;1285;22603;-76
2023/08/03 01:39:37;;;;;;;1.90;1.50;;;;;;;20.52;59.92;95485.27;107807;1285;22543;-76
2023/08/03 01:42:08;;;;;;;2.60;1.30;;;;;;;20.52;60.06;95486.42;107803;1285;24239;-77
2023/08/03 01:44:40;;;;;;;1.90;1.60;;;;;;;20.51;60.10;95477.65;107819;1280;22529;-76
2023/08/03 01:47:11;;;;;;;2.50;1.40;;;;;;;20.51;60.12;95481.27;107794;1285;22563;-76
2023/08/03 01:49:42;;;;;;;3.20;1.50;;;;;;;20.49;60.28;95481.70;107801;1285;22563;-76
2023/08/03 01:52:16;;;;;;;1.60;1.40;;;;;;;20.44;60.31;95476.98;107830;1277;22550;-77
2023/08/03 01:54:46;;;;;;;3.00;1.70;;;;;;;20.42;60.43;95475.89;107820;1278;22541;-76
2023/08/03 01:57:18;;;;;;;1.90;1.50;;;;;;;20.40;60.68;95478.35;107819;1285;22582;-76
2023/08/03 01:59:49;;;;;;;2.40;1.60;;;;;;;20.38;60.75;95473.16;107754;1285;22533;-77
2023/08/03 02:02:20;;;;;;;2.20;1.50;;;;;;;20.36;60.98;95479.08;107821;1285;23196;-76
2023/08/03 02:04:51;;;;;;;2.70;1.80;;;;;;;20.37;60.89;95472.16;107802;1285;22555;-77
2023/08/03 02:07:43;;;;;;;3.20;1.30;;;;;;;20.37;61.03;95468.78;107793;1285;23132;-76
2023/08/03 02:10:15;;;;;;;1.70;1.30;;;;;;;20.36;61.05;95459.08;107784;1285;24419;-76
2023/08/03 02:12:46;;;;;;;4.30;1.90;;;;;;;20.32;61.22;95465.59;107831;1285;23132;-76
2023/08/03 02:15:18;;;;;;;3.50;1.80;;;;;;;20.30;61.24;95460.72;107791;1285;22638;-76
2023/08/03 02:17:48;;;;;;;1.80;1.20;;;;;;;20.31;61.43;95450.73;107781;1285;25267;-76
2023/08/03 02:20:20;;;;;;;2.50;1.80;;;;;;;20.31;61.54;95444.66;107771;1283;22597;-76
2023/08/03 02:22:51;;;;;;;2.80;1.80;;;;;;;20.29;61.52;95450.33;107829;1280;22670;-76
2023/08/03 02:25:23;;;;;;;4.90;1.60;;;;;;;20.28;61.68;95450.32;107833;1285;22566;-76
2023/08/03 02:27:54;;;;;;;2.20;1.70;;;;;;;20.28;61.59;95460.23;107826;1285;23106;-76
2023/08/03 02:30:27;;;;;;;1.70;1.50;;;;;;;20.28;61.94;95464.40;107767;1278;22540;-76
2023/08/03 02:32:58;;;;;;;1.70;1.60;;;;;;;20.27;61.94;95461.91;107817;1284;22540;-76
2023/08/03 02:35:29;;;;;;;1.90;1.70;;;;;;;20.26;61.88;95459.89;107845;1285;25433;-77
2023/08/03 02:38:00;;;;;;;2.90;1.70;;;;;;;20.24;62.18;95473.10;107791;1280;22557;-76
2023/08/03 02:40:31;;;;;;;4.10;1.60;;;;;;;20.24;62.27;95468.17;107819;1281;24247;-76
2023/08/03 02:43:02;;;;;;;2.60;1.70;;;;;;;20.23;62.26;95473.77;107839;1283;22528;-77
2023/08/03 02:45:34;;;;;;;2.10;1.80;;;;;;;20.19;62.37;95475.89;107817;1280;22572;-76
2023/08/03 02:48:06;;;;;;;2.80;2.00;;;;;;;20.13;62.58;95478.61;107812;1285;22703;-77
2023/08/03 02:50:37;;;;;;;2.70;1.80;;;;;;;20.13;62.79;95482.91;107790;1285;22557;-77
2023/08/03 02:53:08;;;;;;;2.20;2.00;;;;;;;20.13;63.07;95482.63;107841;1282;22765;-76
2023/08/03 02:55:40;;;;;;;3.20;1.80;;;;;;;20.17;63.31;95481.17;107756;1285;22560;-76
2023/08/03 02:58:11;;;;;;;2.80;1.80;;;;;;;20.29;63.41;95487.98;107836;1285;22664;-77
2023/08/03 03:00:42;;;;;;;4.00;1.70;;;;;;;20.40;63.46;95489.83;107819;1285;25306;-76
2023/08/03 03:03:13;;;;;;;2.80;1.80;;;;;;;20.50;63.33;95486.48;107832;1285;24295;-77
2023/08/03 03:05:44;;;;;;;2.20;1.80;;;;;;;20.62;63.14;95493.23;107828;1283;22540;-76
2023/08/03 03:08:15;;;;;;;3.40;2.00;;;;;;;20.71;63.02;95496.86;107803;1285;22557;-76
2023/08/03 03:10:46;;;;;;;2.20;1.90;;;;;;;20.76;62.83;95502.76;107810;1285;22560;-76
2023/08/03 03:13:17;;;;;;;2.10;1.90;;;;;;;20.80;62.73;95495.92;107829;1279;22547;-76
2023/08/03 03:15:48;;;;;;;3.30;2.10;;;;;;;20.87;62.83;95494.85;107826;1283;22543;-76
2023/08/03 03:18:19;;;;;;;2.10;1.90;;;;;;;20.93;62.73;95502.83;107799;1280;22755;-76
2023/08/03 03:20:50;;;;;;;2.70;2.00;;;;;;;21.01;62.54;95495.73;107776;1281;22538;-76
2023/08/03 03:23:21;;;;;;;3.50;2.00;;;;;;;21.09;62.36;95503.42;107798;1280;22566;-76
2023/08/03 03:25:52;;;;;;;3.20;2.10;;;;;;;21.12;62.18;95505.77;107803;1285;25252;-76
2023/08/03 03:28:23;;;;;;;3.20;2.10;;;;;;;21.13;62.12;95512.41;107801;1285;22645;-76
2023/08/03 03:30:54;;;;;;;2.80;1.80;;;;;;;21.13;62.03;95512.40;107814;1283;28486;-76
2023/08/03 03:33:25;;;;;;;4.60;2.40;;;;;;;21.13;62.10;95516.41;107813;1284;26211;-76
2023/08/03 03:35:56;;;;;;;2.80;1.90;;;;;;;21.09;62.06;95526.21;107802;1285;22581;-77
2023/08/03 03:38:27;;;;;;;2.40;2.20;;;;;;;21.02;62.16;95532.94;107844;1285;22546;-76
2023/08/03 03:40:58;;;;;;;2.60;1.80;;;;;;;20.96;62.36;95541.96;107784;1285;26203;-76
2023/08/03 03:43:29;;;;;;;3.50;2.10;;;;;;;20.89;62.46;95546.74;107822;1285;22573;-77
2023/08/03 03:46:01;;;;;;;3.40;2.20;;;;;;;20.83;62.62;95548.08;107848;1285;25274;-77
2023/08/03 03:48:33;;;;;;;2.00;1.80;;;;;;;20.80;62.72;95545.48;107871;1285;25242;-77
2023/08/03 03:51:03;;;;;;;4.80;2.00;;;;;;;20.73;62.68;95546.45;107811;1283;22776;-76
2023/08/03 03:53:34;;;;;;;3.40;1.90;;;;;;;20.66;62.84;95543.34;107791;1285;22650;-77
2023/08/03 03:56:06;;;;;;;2.80;2.10;;;;;;;20.59;62.75;95543.60;107830;1277;22541;-76
2023/08/03 03:58:37;;;;;;;2.60;2.00;;;;;;;20.54;62.92;95546.60;107852;1282;25423;-77
2023/08/03 04:01:08;;;;;;;2.50;1.60;;;;;;;20.46;62.96;95544.37;107769;1283;54290;-77
2023/08/03 04:03:40;;;;;;;1.80;1.60;;;;;;;20.38;63.26;95547.10;107812;1285;25304;-77
2023/08/03 04:06:10;;;;;;;2.80;1.80;;;;;;;20.35;63.37;95538.52;107807;1285;22532;-77
2023/08/03 04:08:43;;;;;;;2.20;2.00;;;;;;;20.30;63.55;95542.31;107861;1278;22560;-77
2023/08/03 04:11:14;;;;;;;1.80;1.50;;;;;;;20.26;63.68;95537.24;107783;1264;22595;-76
2023/08/03 04:13:45;;;;;;;4.00;2.00;;;;;;;20.21;63.92;95543.81;107782;1285;22570;-76
2023/08/03 04:16:16;;;;;;;3.10;2.00;;;;;;;20.19;64.13;95547.94;107798;1285;24426;-76
2023/08/03 04:18:47;;;;;;;2.70;1.90;;;;;;;20.18;64.28;95544.85;107766;1280;22541;-77
2023/08/03 04:21:18;;;;;;;2.20;1.80;;;;;;;20.19;64.49;95554.25;107774;1278;24280;-76
2023/08/03 04:23:49;;;;;;;3.20;1.70;;;;;;;20.21;64.48;95544.81;107833;1284;22544;-76
2023/08/03 04:26:20;;;;;;;2.60;1.80;;;;;;;20.26;64.63;95564.02;107784;1284;23014;-76
2023/08/03 04:28:52;;;;;;;3.90;1.90;;;;;;;20.29;64.82;95593.29;107807;1285;22636;-76
2023/08/03 04:31:23;;;;;;;2.30;2.00;;;;;;;20.30;65.07;95597.30;107763;1285;23003;-76
2023/08/03 04:33:54;;;;;;;3.70;2.50;;;;;;;20.33;65.06;95582.88;107792;1284;23276;-76
2023/08/03 04:36:25;;;;;;;3.30;2.20;;;;;;;20.48;65.19;95598.08;107806;1285;24089;-77
2023/08/03 04:38:57;;;;;;;2.10;1.90;;;;;;;20.67;65.59;95599.39;107811;1274;25538;-76
2023/08/03 04:41:28;;;;;;;4.70;2.50;;;;;;;20.86;65.43;95581.13;107828;1266;22541;-76
2023/08/03 04:43:59;;;;;;;5.20;2.20;;;;;;;21.00;65.08;95578.58;107791;1284;23857;-77
2023/08/03 04:46:30;;;;;;;2.70;2.10;;;;;;;21.19;65.49;95582.69;107658;1285;194711;-77
2023/08/03 04:49:03;;;;;;;2.60;1.70;;;;;;;21.40;65.18;95584.12;107813;1279;22666;-76
2023/08/03 04:51:34;;;;;;;2.70;1.90;;;;;;;21.64;64.85;95582.39;107900;1285;22536;-76
2023/08/03 04:54:05;;;;;;;4.50;2.10;;;;;;;21.99;64.95;95584.10;107802;1282;22523;-76
2023/08/03 04:56:37;;;;;;;2.40;1.80;;;;;;;23.07;65.70;95582.69;107809;1285;22541;-76
2023/08/03 04:59:08;;;;;;;3.10;1.80;;;;;;;24.39;64.04;95587.21;107790;1285;24214;-76
2023/08/03 05:01:39;;;;;;;2.90;1.80;;;;;;;25.14;61.24;95594.81;107793;1284;25340;-77
2023/08/03 05:04:10;;;;;;;4.00;1.90;;;;;;;24.62;59.38;95600.92;107799;1285;22567;-77
2023/08/03 05:06:42;;;;;;;2.20;1.70;;;;;;;24.48;60.52;95612.69;107835;1285;22584;-77
2023/08/03 05:09:13;;;;;;;2.70;1.30;;;;;;;25.85;62.70;95614.43;107795;1285;24395;-77
2023/08/03 05:11:44;;;;;;;4.30;1.60;;;;;;;27.29;60.01;95617.14;107787;1285;22541;-77
2023/08/03 05:14:16;;;;;;;1.90;1.70;;;;;;;27.96;57.39;95619.80;107795;1285;22527;-77
2023/08/03 05:16:47;;;;;;;4.20;1.70;;;;;;;28.66;57.06;95613.92;107827;1285;23524;-77
2023/08/03 05:19:19;;;;;;;2.50;1.50;;;;;;;28.93;54.09;95610.30;107819;1282;22600;-76
2023/08/03 05:21:50;;;;;;;4.40;1.70;;;;;;;28.41;53.07;95615.98;107817;1284;24457;-76
2023/08/03 05:24:21;;;;;;;3.30;1.80;;;;;;;27.68;52.23;95612.53;107802;1285;24377;-77
2023/08/03 05:26:52;;;;;;;2.30;1.80;;;;;;;26.96;52.88;95610.13;107778;1285;22533;-77
2023/08/03 05:29:23;;;;;;;2.20;1.60;;;;;;;27.02;54.71;95614.48;107798;1285;22544;-77
2023/08/03 05:31:54;;;;;;;2.90;1.70;;;;;;;28.50;54.85;95615.39;107807;1284;22579;-77
2023/08/03 05:34:26;;;;;;;2.80;1.70;;;;;;;30.19;54.26;95625.31;107814;1277;22548;-77
2023/08/03 05:36:57;;;;;;;2.80;1.60;;;;;;;31.54;51.59;95630.73;107866;1284;25427;-77
2023/08/03 05:39:29;;;;;;;4.00;1.90;;;;;;;31.01;48.97;95638.63;107822;1281;22664;-77
2023/08/03 05:42:02;;;;;;;3.00;1.50;;;;;;;30.00;49.74;95634.33;107808;1285;22855;-77
2023/08/03 05:44:33;;;;;;;1.60;1.40;;;;;;;30.74;51.34;95626.70;107813;1285;24401;-77
2023/08/03 05:47:06;;;;;;;1.20;1.10;;;;;;;32.16;50.08;95627.41;107818;1284;22556;-77
2023/08/03 05:49:37;;;;;;;4.10;1.60;;;;;;;33.04;48.64;95626.13;107801;1282;22531;-77
2023/08/03 05:52:12;;;;;;;3.20;1.90;;;;;;;33.78;47.24;95622.88;107840;1280;22521;-77
2023/08/03 05:54:50;;;;;;;3.70;1.70;;;;;;;34.35;45.71;95630.16;107804;1285;23815;-77
2023/08/03 05:57:22;;;;;;;3.30;1.70;;;;;;;34.27;44.14;95635.49;107861;1277;22510;-77
2023/08/03 05:59:53;;;;;;;2.40;1.30;;;;;;;34.11;43.49;95640.14;107796;1285;22542;-77
2023/08/03 06:02:33;;;;;;;2.20;1.70;;;;;;;33.94;42.83;95641.41;107802;1277;22534;-77
2023/08/03 06:05:06;;;;;;;2.30;1.30;;;;;;;33.73;42.08;95641.68;107828;1285;22535;-77
2023/08/03 06:07:38;;;;;;;2.50;1.60;;;;;;;33.38;41.69;95637.55;107804;1284;22738;-77
2023/08/03 06:10:12;;;;;;;2.50;1.40;;;;;;;33.60;42.67;95636.70;107795;1284;23366;-77
2023/08/03 06:12:43;;;;;;;3.50;1.50;;;;;;;34.32;41.89;95636.80;107805;1278;22657;-77
2023/08/03 06:15:16;;;;;;;2.30;1.40;;;;;;;33.83;40.64;95637.59;107827;1279;22571;-77
2023/08/03 06:17:47;;;;;;;1.80;1.70;;;;;;;33.52;40.98;95639.14;107802;1284;24258;-77
2023/08/03 06:20:22;;;;;;;1.80;1.40;;;;;;;33.49;40.76;95644.80;107749;1285;22617;-77
2023/08/03 06:22:53;;;;;;;1.90;1.20;;;;;;;33.92;41.40;95643.06;107804;1285;22562;-77
2023/08/03 06:25:25;;;;;;;2.50;1.40;;;;;;;33.84;40.02;95640.36;107831;1285;26220;-76
2023/08/03 06:27:57;;;;;;;2.20;1.50;;;;;;;31.78;39.61;95640.09;107803;1284;25804;-77
2023/08/03 06:30:28;;;;;;;3.90;1.70;;;;;;;29.58;41.50;95638.71;107803;1284;22537;-77
2023/08/03 06:33:00;;;;;;;4.00;1.70;;;;;;;28.28;43.44;95637.08;107834;1285;22581;-77
2023/08/03 06:35:38;;;;;;;3.90;2.00;;;;;;;27.67;45.03;95629.59;107820;1277;22559;-77
2023/08/03 06:38:12;;;;;;;3.80;2.10;;;;;;;27.43;46.49;95633.05;107890;1275;22545;-77
2023/08/03 06:40:44;;;;;;;4.20;1.70;;;;;;;27.51;46.52;95630.52;107805;1279;24267;-77
2023/08/03 06:43:16;;;;;;;2.90;1.90;;;;;;;27.42;46.52;95634.70;107857;1285;22635;-77
2023/08/03 06:45:48;;;;;;;2.40;1.90;;;;;;;27.80;46.84;95632.89;107826;1285;22547;-77
2023/08/03 06:48:19;;;;;;;2.30;1.70;;;;;;;28.33;46.97;95632.09;107803;1285;22625;-76
2023/08/03 06:50:50;;;;;;;1.80;1.60;;;;;;;29.48;46.36;95628.27;107797;1284;22570;-77
2023/08/03 06:53:22;;;;;;;4.60;1.70;;;;;;;30.54;45.43;95631.63;107791;1280;22547;-76
2023/08/03 06:55:53;;;;;;;3.60;1.90;;;;;;;31.60;44.38;95636.20;107808;1285;22574;-77
2023/08/03 06:58:24;;;;;;;3.10;1.70;;;;;;;32.23;43.53;95644.05;107822;1280;23088;-76
2023/08/03 07:00:56;;;;;;;2.60;1.70;;;;;;;32.04;43.19;95646.53;107778;1280;22635;-77
2023/08/03 07:03:27;;;;;;;2.30;1.70;;;;;;;32.48;44.73;95641.70;107822;1277;22585;-77
2023/08/03 07:05:58;;;;;;;2.70;1.90;;;;;;;33.26;44.45;95636.34;107812;1277;22531;-77
2023/08/03 07:08:30;;;;;;;3.40;1.70;;;;;;;33.65;43.85;95634.70;107839;1285;22528;-77
2023/08/03 07:11:01;;;;;;;2.80;1.40;;;;;;;33.76;43.35;95638.17;107785;1277;22537;-77
2023/08/03 07:13:33;;;;;;;3.30;1.70;;;;;;;33.32;42.39;95640.83;107846;1285;23346;-77
2023/08/03 07:16:10;;;;;;;2.30;1.80;;;;;;;32.56;42.45;95639.96;107790;1285;22530;-77
2023/08/03 07:18:42;;;;;;;3.10;1.90;;;;;;;31.52;42.86;95631.73;107798;1276;22559;-77
2023/08/03 07:21:13;;;;;;;2.60;1.70;;;;;;;30.84;43.11;95626.77;107750;1277;25340;-77
2023/08/03 07:23:44;;;;;;;4.20;1.80;;;;;;;30.30;43.47;95627.86;107806;1284;22576;-77
2023/08/03 07:26:19;;;;;;;3.40;1.80;;;;;;;29.71;43.68;95625.04;107812;1285;22551;-77
2023/08/03 07:28:50;;;;;;;3.00;1.90;;;;;;;29.13;44.31;95626.02;107791;1285;22549;-77
2023/08/03 07:31:23;;;;;;;4.00;2.20;;;;;;;28.80;44.71;95632.59;107805;1262;22556;-76
2023/08/03 07:33:54;;;;;;;2.20;2.00;;;;;;;28.73;44.98;95636.17;107772;1280;22535;-76
2023/08/03 07:36:25;;;;;;;2.30;2.00;;;;;;;28.76;45.37;95641.19;107800;1284;22616;-76
2023/08/03 07:38:56;;;;;;;3.40;2.30;;;;;;;28.83;45.34;95645.89;107813;1277;24289;-76
2023/08/03 07:41:27;;;;;;;3.60;2.10;;;;;;;29.35;45.28;95646.13;107785;1285;22533;-76
2023/08/03 07:44:00;;;;;;;2.90;2.10;;;;;;;29.53;44.66;95647.55;107793;1284;22563;-77
2023/08/03 07:46:32;;;;;;;5.10;2.10;;;;;;;29.26;44.49;95645.63;107823;1283;25372;-76
2023/08/03 07:49:04;;;;;;;2.60;2.00;;;;;;;28.98;45.10;95647.86;107816;1279;22526;-76
2023/08/03 07:51:35;;;;;;;2.50;2.00;;;;;;;28.60;45.15;95653.73;107807;1285;22530;-77
2023/08/03 07:54:08;;;;;;;4.90;2.00;;;;;;;28.17;45.59;95660.47;107815;1277;22524;-76
2023/08/03 07:56:48;;;;;;;2.60;2.00;;;;;;;27.58;45.85;95669.70;107855;1284;22526;-76
2023/08/03 07:59:19;;;;;;;3.40;2.30;;;;;;;26.79;46.89;95671.41;107806;1285;22523;-76
2023/08/03 08:01:51;;;;;;;2.70;2.30;;;;;;;26.20;48.03;95676.80;107797;1285;25226;-77
2023/08/03 08:04:23;;;;;;;3.30;2.30;;;;;;;25.61;48.65;95683.77;107783;1283;22690;-76
2023/08/03 08:06:54;;;;;;;5.80;3.00;;;;;;;25.11;49.59;95686.04;107815;1285;22546;-76
2023/08/03 08:09:27;;;;;;;3.80;2.50;;;;;;;24.74;50.62;95696.22;107777;1280;22537;-76
2023/08/03 08:11:58;;;;;;;3.20;2.60;;;;;;;24.43;51.19;95700.17;107862;1284;25379;-76
2023/08/03 08:14:30;;;;;;;3.50;2.70;;;;;;;24.14;52.02;95707.28;107801;1285;22539;-76
2023/08/03 08:17:03;;;;;;;3.10;2.30;;;;;;;23.93;52.72;95714.56;107812;1285;22534;-76
2023/08/03 08:19:35;;;;;;;4.80;2.70;;;;;;;23.76;53.59;95721.27;107762;1277;24468;-76
2023/08/03 08:22:08;;;;;;;4.70;2.40;;;;;;;23.33;54.83;95728.73;107810;1285;22537;-76
2023/08/03 08:24:41;;;;;;;3.70;2.40;;;;;;;22.83;56.25;95726.44;107787;1285;22547;-76
2023/08/03 08:27:12;;;;;;;3.40;2.30;;;;;;;22.32;58.01;95717.31;107808;1285;25432;-77
2023/08/03 08:29:44;;;;;;;4.00;2.60;;;;;;;21.72;60.70;95720.95;107763;1285;22529;-75
2023/08/03 08:32:15;;;;;;;5.20;2.50;;;;;;;21.12;63.52;95740.55;107811;1285;22527;-76
2023/08/03 08:34:49;;;;;;;2.40;1.70;;;;;;;20.58;65.52;95747.63;107809;1285;22538;-76
2023/08/03 08:37:21;;;;;;;2.20;1.70;;;;;;;20.12;66.70;95766.59;107818;1283;22816;-76
2023/08/03 08:39:53;;;;;;;2.20;1.50;;;;;;;19.82;67.28;95768.68;107820;1285;24550;-76
2023/08/03 08:42:24;;;;;;;2.10;1.50;;;;;;;19.51;67.83;95773.17;107801;1285;22552;-76
2023/08/03 08:44:56;;;;;;;1.60;1.40;;;;;;;19.27;68.78;95778.46;107796;1285;22734;-75
2023/08/03 08:47:28;;;;;;;1.60;1.30;;;;;;;19.08;69.62;95776.62;107809;1285;22534;-76
2023/08/03 08:49:59;;;;;;;1.70;1.50;;;;;;;18.94;70.53;95778.86;107786;1284;22535;-75
2023/08/03 08:52:31;;;;;;;1.40;1.00;;;;;;;18.82;71.08;95783.68;107768;1278;22542;-75
2023/08/03 08:55:15;;;;;;;1.70;1.30;;;;;;;18.64;71.92;95796.17;107795;1285;22562;-75
2023/08/03 08:57:46;;;;;;;1.30;1.00;;;;;;;18.41;72.37;95802.13;107798;1282;22547;-76
2023/08/03 09:00:18;;;;;;;1.40;1.00;;;;;;;18.24;72.65;95816.36;107791;1284;22528;-75
2023/08/03 09:02:54;;;;;;;1.00;0.80;;;;;;;18.13;73.24;95825.83;107788;1280;22522;-76
2023/08/03 09:05:26;;;;;;;1.00;0.80;;;;;;;18.00;73.89;95830.88;107772;1284;22525;-76
2023/08/03 09:08:06;;;;;;;1.60;1.60;;;;;;;17.86;74.53;95835.27;107795;1280;25340;-75
2023/08/03 09:10:50;;;;;;;1.60;1.10;;;;;;;17.73;75.13;95837.59;107790;1283;26531;-76
2023/08/03 09:13:32;;;;;;;1.10;0.80;;;;;;;17.59;75.69;95846.30;107739;1279;22540;-76
2023/08/03 09:16:04;;;;;;;1.30;0.90;;;;;;;17.47;76.45;95849.13;107796;1282;25427;-75
2023/08/03 09:18:46;;;;;;;1.80;1.30;;;;;;;17.38;76.77;95846.10;107728;1280;22533;-75
2023/08/03 09:21:19;;;;;;;1.90;1.10;;;;;;;17.30;77.17;95850.93;107728;1280;22547;-75
2023/08/03 09:23:51;;;;;;;2.30;1.20;;;;;;;17.25;77.59;95852.16;107790;1277;22541;-75
2023/08/03 09:26:27;;;;;;;3.40;1.50;;;;;;;17.24;77.65;95859.70;107738;1277;22547;-75
2023/08/03 09:29:00;;;;;;;1.80;1.20;;;;;;;17.25;78.06;95868.16;107720;1266;22582;-75
2023/08/03 09:31:33;;;;;;;1.60;1.10;;;;;;;17.26;78.17;95875.98;107791;1277;22534;-75
2023/08/03 09:34:04;;;;;;;2.60;1.30;;;;;;;17.27;78.41;95881.98;107733;1277;24230;-76
2023/08/03 09:36:47;;;;;;;2.40;1.40;;;;;;;17.34;78.64;95880.73;107312;1277;26466;-76
2023/08/03 09:39:20;;;;;;;2.30;1.30;;;;;;;17.37;78.56;95888.03;107917;1277;22566;-76
2023/08/03 09:41:51;;;;;;;2.40;1.40;;;;;;;17.39;78.58;95887.70;107858;1270;22518;-76
2023/08/03 09:44:25;;;;;;;1.40;1.00;;;;;;;17.41;78.64;95910.34;107771;1280;23854;-76
2023/08/03 09:46:58;;;;;;;2.20;1.50;;;;;;;17.36;78.60;95909.20;107697;1270;22527;-75
2023/08/03 09:49:30;;;;;;;1.60;1.40;;;;;;;17.33;78.74;95909.73;107685;1284;24653;-75
2023/08/03 09:52:10;;;;;;;1.50;1.30;;;;;;;17.32;78.62;95907.80;107785;1280;22523;-76
2023/08/03 09:54:52;;;;;;;2.70;1.60;;;;;;;17.29;78.79;95917.25;107813;1263;24377;-76
2023/08/03 09:57:30;;;;;;;2.60;1.40;;;;;;;17.25;78.86;95916.16;107767;1284;22534;-75
2023/08/03 10:00:06;;;;;;;1.60;1.50;;;;;;;17.20;78.79;95919.29;107703;1277;22641;-76
2023/08/03 10:02:50;;;;;;;1.20;1.10;;;;;;;17.12;79.15;95911.39;107729;1285;24237;-76
2023/08/03 10:05:25;;;;;;;1.10;1.00;;;;;;;17.07;79.31;95895.42;107781;1284;22561;-76
2023/08/03 10:08:05;;;;;;;1.60;1.30;;;;;;;17.10;79.63;95893.73;107698;1285;22609;-75
2023/08/03 10:10:42;;;;;;;1.40;0.80;;;;;;;17.15;79.92;95896.41;107762;1280;22538;-76
2023/08/03 10:13:14;;;;;;;1.60;1.00;;;;;;;17.22;80.14;95901.14;107760;1279;22529;-76
2023/08/03 10:15:46;;;;;;;1.90;1.40;;;;;;;17.22;80.02;95895.72;107759;1278;22527;-76
2023/08/03 10:18:19;;;;;;;1.10;1.00;;;;;;;17.21;80.33;95885.27;107753;1280;22531;-76
2023/08/03 10:20:51;;;;;;;4.30;1.50;;;;;;;17.21;80.27;95871.37;107728;1285;24316;-76
2023/08/03 10:23:22;;;;;;;3.50;1.20;;;;;;;17.25;80.46;95858.11;107761;1280;22522;-76
2023/08/03 10:25:58;;;;;;;1.60;1.20;;;;;;;17.29;80.47;95844.30;107759;1280;23479;-75
2023/08/03 10:28:45;;;;;;;1.30;0.90;;;;;;;17.32;80.45;95823.91;107768;1284;22670;-76
2023/08/03 10:31:18;;;;;;;1.10;0.90;;;;;;;17.39;80.67;95800.27;107724;1277;22637;-76
2023/08/03 10:34:14;;;;;;;2.30;1.10;;;;;;;17.51;80.95;95798.30;107664;1282;22556;-76
2023/08/03 10:36:53;;;;;;;2.50;1.20;;;;;;;17.66;81.23;95794.65;107706;1277;27161;-75
2023/08/03 10:39:40;;;;;;;;;;;;;;;17.79;81.20;95798.85;107709;1285;27541;-76
2023/08/03 10:42:29;;;;;;;1.60;1.00;;;;;;;17.81;80.79;95799.67;107764;1284;22558;-75
2023/08/03 10:45:29;;;;;;;1.50;0.90;;;;;;;17.81;80.49;95794.70;107753;1284;22489;-76
2023/08/03 10:48:30;;;;;;;1.60;1.20;;;;;;;17.85;81.24;95786.88;107861;1282;22709;-76
2023/08/03 10:51:03;;;;;;;1.50;1.10;;;;;;;17.97;81.34;95788.27;107725;1285;22554;-76
2023/08/03 10:53:34;;;;;;;3.70;1.50;;;;;;;18.04;81.11;95780.80;107745;1285;22690;-76
2023/08/03 10:56:14;;;;;;;1.20;1.00;;;;;;;18.07;80.92;95777.25;107716;1280;22615;-76
2023/08/03 10:58:48;;;;;;;2.10;1.10;;;;;;;18.08;80.58;95780.05;107869;1284;25304;-76
2023/08/03 11:01:25;;;;;;;1.50;1.20;;;;;;;18.05;80.71;95784.11;107890;1282;22527;-75
2023/08/03 11:03:56;;;;;;;1.90;1.40;;;;;;;18.03;80.95;95791.73;107767;1285;22553;-76
2023/08/03 11:06:30;;;;;;;1.80;1.10;;;;;;;17.96;81.11;95783.88;107727;1280;22527;-76
2023/08/03 11:09:04;;;;;;;1.20;1.10;;;;;;;17.92;81.43;95789.16;107818;1283;22582;-76
2023/08/03 11:11:36;;;;;;;1.80;1.20;;;;;;;17.94;81.49;95788.89;107730;1284;22547;-76
2023/08/03 11:14:07;;;;;;;2.00;1.00;;;;;;;17.98;81.51;95798.63;107734;1284;22534;-76
2023/08/03 11:16:39;;;;;;;1.10;1.00;;;;;;;18.00;81.37;95804.51;107751;1285;22624;-76
2023/08/03 11:19:14;;;;;;;1.30;1.00;;;;;;;18.01;80.87;95807.37;107696;1280;22540;-76
2023/08/03 11:21:45;;;;;;;2.20;1.00;;;;;;;18.01;80.41;95810.11;107746;1274;24211;-76
2023/08/03 11:24:16;;;;;;;2.20;1.10;;;;;;;18.05;80.91;95814.45;107742;1284;22549;-76
2023/08/03 11:26:48;;;;;;;1.10;1.00;;;;;;;18.14;81.50;95827.46;107688;1285;22533;-76
2023/08/03 11:29:19;;;;;;;1.80;1.40;;;;;;;18.27;82.23;95826.95;107726;1285;57803;-76
2023/08/03 11:31:50;;;;;;;1.00;0.90;;;;;;;18.42;82.56;95826.70;107747;1262;23000;-76
2023/08/03 11:34:24;;;;;;;1.20;1.00;;;;;;;18.54;82.55;95833.64;107753;1285;22586;-76
2023/08/03 11:36:56;;;;;;;1.90;1.30;;;;;;;18.63;82.47;95834.02;107737;1285;22551;-76
2023/08/03 11:39:27;;;;;;;1.20;1.00;;;;;;;18.70;82.08;95832.58;107715;1285;25267;-76
2023/08/03 11:41:59;;;;;;;2.00;1.00;;;;;;;18.68;81.24;95840.98;107783;1280;22562;-76
2023/08/03 11:44:30;;;;;;;1.20;0.90;;;;;;;18.67;81.02;95845.17;107778;1285;22577;-76
2023/08/03 11:47:09;;;;;;;1.10;1.00;;;;;;;18.66;80.92;95833.11;107737;1283;22537;-76
2023/08/03 11:49:40;;;;;;;2.40;0.80;;;;;;;18.66;81.41;95836.50;107701;1284;21772;-76